Brest Bretagne Airport

LFRB · Finistère, Bretagna, Francia

Storia di METAR LFRB · Brest Bretagne Airport

Di seguito sono riportati i METAR degli ultimi giorni. Seleziona un anno per sfogliare i METAR più vecchi, dall'anno 2007 in poi.

29 maggio 2024

Tempo Codice Tempo meteorologico Temp. Vista Base nuvolosa Vento METAR/SPECI
13:30
I
16 °C 10 km+ 700 ft 280° 280° 11 kt METAR LFRB 291130Z AUTO 28011KT 250V310 9999 BKN007 OVC013 16/15 Q1013 TEMPO 2500 -RADZ OVC003
13:00
I
15 °C 10 km+ 600 ft 280° 280° 11 kt METAR LFRB 291100Z AUTO 28011KT 240V300 9999 OVC006 15/15 Q1013 TEMPO 0900 DZ FG VV///
12:30
I
15 °C 3,4 km 500 ft 260° 260° 9 kt METAR LFRB 291030Z AUTO 26009KT 7000 3400 OVC005 15/15 Q1013 TEMPO 0900 DZ FG VV///
12:00
I
15 °C 2,8 km 500 ft 270° 270° 9 kt METAR LFRB 291000Z AUTO 27009KT 6000 2800 OVC005 15/14 Q1013 TEMPO 0900 DZ FG VV///
11:30
I
15 °C 10 km+ 600 ft 270° 270° 10 kt METAR LFRB 290930Z AUTO 27010KT 240V300 9999 OVC006 15/14 Q1013 TEMPO 0900 DZ FG VV///
11:00
I
15 °C 2,9 km 500 ft 260° 260° 10 kt METAR LFRB 290900Z AUTO 26010KT 240V300 9999 2900 -DZ OVC005 15/15 Q1013 TEMPO 0900 DZ FG VV///
10:30
L
15 °C 3,9 km 400 ft 260° 260° 9 kt METAR LFRB 290830Z AUTO 26009KT 220V300 3900 -DZ BR OVC004 15/15 Q1013 TEMPO 0900 DZ FG VV///
10:00
L
15 °C 6 km 400 ft 260° 260° 10 kt METAR LFRB 290800Z AUTO 26010KT 6000 -DZ OVC004 15/15 Q1013 TEMPO 0900 DZ FG VV///
09:30
L
15 °C 4,6 km 400 ft 250° 250° 9 kt METAR LFRB 290730Z AUTO 25009KT 4600 -DZ BR OVC004 15/14 Q1013 TEMPO 0900 DZ FG VV///
09:00
L
15 °C 4,1 km 400 ft 230° 230° 10 kt METAR LFRB 290700Z AUTO 23010KT 4100 BR OVC004 15/14 Q1013 TEMPO 0900 DZ FG VV///
08:30
L
14 °C 3,7 km 400 ft 220° 220° 10 kt METAR LFRB 290630Z AUTO 22010KT 3700 -DZ BR OVC004 14/14 Q1013 TEMPO 0900 DZ FG VV///
08:00
L
14 °C 2,9 km 300 ft 230° 230° 8 kt METAR LFRB 290600Z AUTO 23008KT 2900 R25/1400U BR OVC003 14/14 Q1013 TEMPO 0900 DZ FG VV///
07:30
L
14 °C 2,6 km 300 ft 210° 210° 6 kt METAR LFRB 290530Z AUTO 21006KT 7000 2600 -DZ OVC003 14/14 Q1013 TEMPO 0900 DZ FG VV///
07:00
I
14 °C 4,8 km 500 ft 220° 220° 6 kt METAR LFRB 290500Z AUTO 22006KT 4800 BR OVC005 14/14 Q1013 TEMPO 0900 DZ FG VV///
06:30
I
14 °C 10 km+ 500 ft 220° 220° 7 kt METAR LFRB 290430Z AUTO 22007KT 9999 OVC005/// //////TCU 14/14 Q1013 TEMPO 0900 DZ FG VV///
06:00
L
14 °C 10 km+ 400 ft 240° 240° 6 kt METAR LFRB 290400Z AUTO 24006KT 9999 OVC004/// //////TCU 14/14 Q1013 TEMPO 0900 DZ FG VV///
05:30
L
14 °C 4,1 km 200 ft 250° 250° 7 kt METAR LFRB 290330Z AUTO 25007KT 4100 -RA BR OVC002 14/14 Q1014 TEMPO 0900 DZ FG VV///
05:00
L
14 °C 3 km 200 ft 240° 240° 9 kt METAR LFRB 290300Z AUTO 24009KT 3000 BR OVC002 14/14 Q1014 TEMPO 0900 DZ FG VV///
04:30
L
14 °C 1,3 km 200 ft 240° 240° 9 kt METAR LFRB 290230Z AUTO 24009KT 1700 1300 R25/P2000 R07/1900D BR OVC002 14/14 Q1014 TEMPO 0900 DZ FG VV///
04:00
L
14 °C 1,5 km - 230° 230° 10 kt METAR LFRB 290200Z AUTO 23010KT 1500 BR VV/// 14/14 Q1014 TEMPO DZ
03:30
L
14 °C 2,3 km 200 ft 240° 240° 10 kt METAR LFRB 290130Z AUTO 24010KT 2300 -RA BR OVC002 14/14 Q1014 TEMPO 0900 DZ FG VV///
03:00
L
14 °C 2,2 km 200 ft 230° 230° 10 kt METAR LFRB 290100Z AUTO 23010KT 2200 -DZ BR OVC002 14/14 Q1014 TEMPO 0900 DZ FG VV///
02:30
L
14 °C 2,7 km 200 ft 240° 240° 11 kt METAR LFRB 290030Z AUTO 24011KT 2700 BR OVC002 14/14 Q1015 TEMPO 0900 DZ FG VV///
02:00
L
14 °C 2,4 km 200 ft 240° 240° 11 kt METAR LFRB 290000Z AUTO 24011KT 2400 BR OVC002 14/14 Q1015 TEMPO 0900 DZ FG VV///
01:30
L
14 °C 2,8 km 200 ft 230° 230° 12 kt METAR LFRB 282330Z AUTO 23012KT 2800 BR OVC002 14/14 Q1015 TEMPO 0900 DZ FG VV///
01:00
L
14 °C 1,8 km 200 ft 230° 230° 11 kt METAR LFRB 282300Z AUTO 23011KT 1800 BR OVC002 14/14 Q1015 TEMPO 0900 DZ FG VV///
00:30
L
14 °C 2 km 200 ft 240° 240° 11 kt METAR LFRB 282230Z AUTO 24011KT 2000 -DZ BR OVC002 14/14 Q1016 TEMPO 0900 DZ FG VV///
00:00
L
14 °C 1,9 km 200 ft 240° 240° 11 kt METAR LFRB 282200Z AUTO 24011KT 1900 BR OVC002 14/14 Q1016 TEMPO 0900 DZ FG VV///

28 maggio 2024

Tempo Codice Tempo meteorologico Temp. Vista Base nuvolosa Vento METAR/SPECI
23:30
L
14 °C 2,5 km 200 ft 240° 240° 13 kt METAR LFRB 282130Z AUTO 24013KT 2500 -DZ BR OVC002 14/14 Q1016 TEMPO 0900 DZ FG VV///
23:00
L
14 °C 2,6 km 200 ft 240° 240° 13 kt METAR LFRB 282100Z AUTO 24013KT 2600 BR OVC002/// ///TCU 14/14 Q1016 TEMPO 0900 DZ FG VV///
22:30
L
14 °C 2,8 km 200 ft 240° 240° 13 kt METAR LFRB 282030Z AUTO 24013KT 2800 BR OVC002 14/14 Q1016 TEMPO 0900 DZ FG VV///
22:00
L
14 °C 2,6 km 200 ft 230° 230° 12 kt METAR LFRB 282000Z AUTO 23012KT 2600 -RADZ BR OVC002 14/14 Q1016 TEMPO DZ
21:30
L
14 °C 2,8 km 300 ft 230° 230° 13 kt METAR LFRB 281930Z AUTO 23013KT 2800 BR OVC003 14/14 Q1016 TEMPO DZ
21:00
L
14 °C 2,6 km 300 ft 240° 240° 12 kt METAR LFRB 281900Z AUTO 24012KT 2600 -DZ BR OVC003 14/14 Q1016 TEMPO DZ
20:30
L
14 °C 2,3 km 200 ft 240° 240° 14 kt METAR LFRB 281830Z AUTO 24014KT 2300 -RADZ BR OVC002 14/14 Q1016 TEMPO DZ
20:00
L
14 °C 2,4 km 300 ft 230° 230° 15 kt METAR LFRB 281800Z AUTO 23015KT 2400 -DZ BR OVC003 14/14 Q1016 TEMPO DZ
19:30
L
14 °C 2,4 km 300 ft 230° 230° 15 kt METAR LFRB 281730Z AUTO 23015KT 2400 -DZ BR OVC003 14/14 Q1016 TEMPO DZ
19:00
L
14 °C 2,8 km 400 ft 230° 230° 16 kt METAR LFRB 281700Z AUTO 23016KT 2800 -RADZ BR OVC004 14/14 Q1016 TEMPO RADZ
18:30
L
14 °C 5 km 300 ft 230° 230° 17 kt METAR LFRB 281630Z AUTO 23017KT 5000 -DZ BR OVC003 14/14 Q1016 TEMPO 2000 RADZ
18:00
L
14 °C 3 km 400 ft 220° 220° 18 kt METAR LFRB 281600Z AUTO 22018KT 3000 -RA BR OVC004 14/14 Q1016 TEMPO RADZ
17:30
L
14 °C 3,2 km 400 ft 220° 220° 17 kt METAR LFRB 281530Z AUTO 22017KT 3200 BR OVC004/// //////TCU 14/14 Q1016 TEMPO 2000 RADZ OVC004
17:00
L
14 °C 3,5 km 400 ft 220° 220° 17 kt METAR LFRB 281500Z AUTO 22017KT 3500 -RA BR OVC004/// //////TCU 14/14 Q1016 TEMPO 22015G25KT 2000 RADZ OVC004
16:30
I
14 °C 2,8 km 500 ft 210° 210° 17 kt METAR LFRB 281430Z AUTO 21017KT 2800 -RA BR OVC005/// ///TCU 14/13 Q1017 TEMPO 22015G25KT 4000 RA OVC004
16:00
I
14 °C 3,9 km 600 ft 210° 210° 18 kt METAR LFRB 281400Z AUTO 21018KT 3900 -RA BR OVC006/// ///TCU 14/14 Q1017 TEMPO 22015G25KT RA OVC006
15:30
I
15 °C 3,2 km 700 ft 210° 210° 16 kt METAR LFRB 281330Z AUTO 21016KT 190V250 7000 3200 OVC007 15/14 Q1017 TEMPO 22015G25KT 4000 RA
15:00
M
15 °C 10 km+ 1.000 ft 220° 220° 19 kt METAR LFRB 281300Z AUTO 22019KT 9999 OVC010 15/13 Q1017 TEMPO 22015G25KT 4000 RA
14:30
M
15 °C 10 km+ 1.100 ft 220° 220° 18 kt METAR LFRB 281230Z AUTO 22018KT 9999 OVC011 15/13 Q1017 TEMPO 22015G25KT 4000 RA OVC006
14:00
M
15 °C 10 km+ 1.100 ft 220° 220° 19 kt METAR LFRB 281200Z AUTO 22019KT 9999 OVC011 15/13 Q1017 TEMPO 22015G25KT 4000 RA OVC006
13:30
M
15 °C 10 km+ 1.100 ft 220° 220° 18 kt METAR LFRB 281130Z AUTO 22018KT 9999 OVC011 15/13 Q1017 TEMPO 22015G25KT 4000 RA OVC006
13:00
M
15 °C 10 km+ 1.000 ft 220° 220° 18 kt METAR LFRB 281100Z AUTO 22018KT 9999 OVC010 15/13 Q1017 TEMPO 22015G25KT 4000 RADZ
12:30
M
14 °C 10 km+ 1.000 ft 220° 220° 17 kt METAR LFRB 281030Z AUTO 22017KT 9999 OVC010 14/13 Q1017 TEMPO 22015G25KT 4000 RADZ
12:00
I
15 °C 10 km+ 900 ft 220° 220° 17 kt METAR LFRB 281000Z AUTO 22017KT 9999 OVC009 15/13 Q1017 TEMPO 22015G25KT 4000 RADZ
11:30
I
14 °C 10 km+ 800 ft 220° 220° 16 kt METAR LFRB 280930Z AUTO 22016KT 9999 OVC008 14/13 Q1017 TEMPO 22015G25KT 4000 RADZ
11:00
I
14 °C 10 km+ 800 ft 230° 230° 15 kt METAR LFRB 280900Z AUTO 23015KT 9999 BKN008 OVC012 14/13 Q1018 TEMPO 22015G25KT 4000 RADZ
10:30
I
14 °C 10 km+ 900 ft 230° 230° 18 kt METAR LFRB 280830Z AUTO 23018KT 9999 OVC009 14/13 Q1018 TEMPO 22015G25KT BECMG OVC012
10:00
I
14 °C 10 km+ 900 ft 230° 230° 16 kt METAR LFRB 280800Z AUTO 23016KT 200V260 9999 BKN009 OVC013 14/13 Q1018 BECMG OVC012
09:30
M
15 °C 10 km+ 1.100 ft 230° 230° 13 kt METAR LFRB 280730Z AUTO 23013KT 9999 OVC011 15/13 Q1017 NOSIG
09:00
M
14 °C 10 km+ 1.000 ft 230° 230° 14 kt METAR LFRB 280700Z AUTO 23014KT 9999 OVC010 14/13 Q1017 TEMPO 3000 RADZ BKN004
08:30
M
14 °C 10 km+ 1.000 ft 240° 240° 12 kt METAR LFRB 280630Z AUTO 24012KT 9999 OVC010 14/13 Q1017 TEMPO 3000 RADZ BKN004
08:00
I
13 °C 10 km+ 700 ft 240° 240° 13 kt METAR LFRB 280600Z AUTO 24013KT 9999 OVC007 13/13 Q1017 TEMPO 3000 RADZ BKN004
07:30
I
13 °C 9 km 500 ft 240° 240° 14 kt METAR LFRB 280530Z AUTO 24014KT 9000 OVC005 13/13 Q1017 TEMPO 3000 RADZ
07:00
I
13 °C 10 km+ 500 ft 240° 240° 14 kt METAR LFRB 280500Z AUTO 24014KT 220V280 9999 -DZ OVC005 13/13 Q1017 TEMPO 3000 RADZ
06:30
L
14 °C 6 km 400 ft 250° 250° 14 kt METAR LFRB 280430Z AUTO 25014KT 6000 -RADZ OVC004 14/13 Q1017 TEMPO 3000 RADZ BKN006
06:00
L
14 °C 4,7 km 300 ft 240° 240° 12 kt METAR LFRB 280400Z AUTO 24012KT 210V270 4700 -DZ BR OVC003 14/13 Q1017 TEMPO 2000 RADZ
05:30
L
14 °C 4 km 300 ft 250° 250° 12 kt METAR LFRB 280330Z AUTO 25012KT 4000 -RADZ BR OVC003 14/13 Q1017 TEMPO 2000 RADZ
05:00
L
14 °C 3,9 km 200 ft 250° 250° 13 kt METAR LFRB 280300Z AUTO 25013KT 3900 BR OVC002 14/13 Q1017 TEMPO 2000 RADZ
04:30
L
14 °C 3,9 km 300 ft 250° 250° 13 kt METAR LFRB 280230Z AUTO 25013KT 3900 BR OVC003 14/13 Q1017 TEMPO 2000 RADZ
04:00
L
14 °C 3,9 km 300 ft 250° 250° 12 kt METAR LFRB 280200Z AUTO 25012KT 3900 BR OVC003 14/13 Q1017 TEMPO 2000 RADZ
03:30
L
14 °C 5 km 300 ft 260° 260° 12 kt METAR LFRB 280130Z AUTO 26012KT 5000 BR OVC003 14/14 Q1017 TEMPO 2000 RADZ
03:00
L
14 °C 8 km 400 ft 250° 250° 12 kt METAR LFRB 280100Z AUTO 25012KT 8000 OVC004 14/13 Q1017 TEMPO 2000 RADZ
02:30
L
14 °C 10 km+ 400 ft 250° 250° 13 kt METAR LFRB 280030Z AUTO 25013KT 220V280 9999 OVC004 14/13 Q1017 TEMPO 2000 RADZ
02:00
L
14 °C 10 km+ 400 ft 250° 250° 11 kt METAR LFRB 280000Z AUTO 25011KT 9999 -DZ BKN004 OVC008 14/13 Q1017 TEMPO 2000 RADZ
01:30
L
14 °C 4,5 km 400 ft 250° 250° 11 kt METAR LFRB 272330Z AUTO 25011KT 4500 -DZ BR OVC004 14/13 Q1017 TEMPO 2000 RADZ
01:00
I
14 °C 6 km 500 ft 240° 240° 13 kt METAR LFRB 272300Z AUTO 24013KT 6000 DZ OVC005 14/13 Q1017 TEMPO 24015G25KT 2000 RADZ
00:30
I
14 °C 5 km 600 ft 240° 240° 13 kt METAR LFRB 272230Z AUTO 24013KT 5000 DZ BR OVC006 14/13 Q1017 TEMPO 24015G25KT 2000 RADZ BKN003
00:00
I
14 °C 5 km 500 ft 230° 230° 14 kt METAR LFRB 272200Z AUTO 23014KT 5000 DZ BR OVC005 14/13 Q1017 TEMPO 24015G25KT 2000 RADZ

27 maggio 2024

Tempo Codice Tempo meteorologico Temp. Vista Base nuvolosa Vento METAR/SPECI
23:30
I
14 °C 6 km 500 ft 230° 230° 13 kt METAR LFRB 272130Z AUTO 23013KT 6000 -RA OVC005 14/13 Q1018 TEMPO 24015G25KT 2000 RADZ
23:00
I
14 °C 6 km 500 ft 230° 230° 13 kt METAR LFRB 272100Z AUTO 23013KT 6000 -RADZ OVC005 14/13 Q1018 TEMPO 24015G25KT 2000 RADZ
22:30
I
13 °C 5 km 500 ft 220° 220° 15 kt METAR LFRB 272030Z AUTO 22015KT 5000 -RADZ BR OVC005 13/13 Q1017 TEMPO 24015G25KT 2000 RADZ
22:00
L
13 °C 4 km 400 ft 220° 220° 16 kt METAR LFRB 272000Z AUTO 22016KT 4000 DZ BR OVC004 13/13 Q1017 TEMPO 24015G25KT 2000 RADZ
21:30
L
13 °C 4,6 km 400 ft 210° 210° 16 kt METAR LFRB 271930Z AUTO 21016KT 4600 BR OVC004 13/12 Q1017 TEMPO 24015G25KT 2000 RADZ
21:00
L
13 °C 2,9 km 400 ft 210° 210° 15 kt METAR LFRB 271900Z AUTO 21015KT 2900 -RA BR OVC004 13/12 Q1018 TEMPO 24015G25KT RADZ
20:30
L
13 °C 3,3 km 400 ft 210° 210° 13 kt METAR LFRB 271830Z AUTO 21013KT 3300 -RA BR OVC004 13/12 Q1018 TEMPO 24015G25KT RADZ BKN006
20:00
I
13 °C 5 km 600 ft 200° 200° 14 kt METAR LFRB 271800Z AUTO 20014KT 5000 -RA BR OVC006 13/11 Q1018 TEMPO 24015G25KT RADZ
19:30
M
13 °C 8 km 1.000 ft 200° 200° 12 kt METAR LFRB 271730Z AUTO 20012KT 8000 -RA BKN010 OVC016 13/11 Q1018 TEMPO 24015G25KT 3000 RADZ
19:00
M
13 °C 10 km+ 2.200 ft 210° 210° 14 - 25 kt METAR LFRB 271700Z AUTO 21014G25KT 9999 SCT016 BKN022 BKN029 13/10 Q1018 TEMPO 3000 RADZ BKN006
18:30
M
13 °C 10 km+ 2.100 ft 230° 230° 15 kt METAR LFRB 271630Z AUTO 23015KT 9999 BKN021 BKN030 BKN038 13/09 Q1019 TEMPO 24015G25KT 3000 RADZ BKN006
18:00
M
14 °C 10 km+ 2.300 ft 220° 220° 16 kt METAR LFRB 271600Z AUTO 22016KT 9999 BKN023 OVC030 14/10 Q1019 TEMPO 24015G25KT 3000 RADZ BKN006
17:30
M
14 °C 10 km+ 2.300 ft 230° 230° 16 kt METAR LFRB 271530Z AUTO 23016KT 9999 BKN023 BKN030 BKN066 14/10 Q1019 TEMPO 24015G25KT 3000 RADZ BKN006
17:00
M
15 °C 10 km+ 2.500 ft 230° 230° 15 kt METAR LFRB 271500Z AUTO 23015KT 9999 BKN025 BKN030 BKN048 15/09 Q1019 TEMPO 24015G25KT
16:30
M
15 °C 10 km+ 2.500 ft 230° 230° 15 kt METAR LFRB 271430Z AUTO 23015KT 9999 BKN025 BKN031 OVC045 15/09 Q1019 TEMPO 24015G25KT
16:00
V
15 °C 10 km+ 4.800 ft 360° 360° 0 kt METAR LFRB 271400Z AUTO /////KT 9999 // SCT030 SCT037 OVC048 15/09 Q1019
15:30
M
15 °C 10 km+ 2.800 ft 360° 360° 0 kt METAR LFRB 271330Z AUTO /////KT 9999 BKN028 OVC038 15/10 Q1019
15:00
M
15 °C 10 km+ 3.000 ft 230° 230° 12 kt METAR LFRB 271300Z AUTO 23012KT 9999 BKN030 BKN035 BKN043 15/08 Q1019 TEMPO 24015G25KT
14:30
V
15 °C 10 km+ 3.300 ft 240° 240° 15 kt METAR LFRB 271230Z AUTO 24015KT 200V270 9999 BKN033 BKN039 OVC045 15/09 Q1019 TEMPO 24015G25KT
14:00
V
16 °C 10 km+ 4.300 ft 230° 230° 15 kt METAR LFRB 271200Z AUTO 23015KT 9999 SCT037 BKN043 16/08 Q1019 TEMPO 24015G25KT
13:30
V
15 °C 10 km+ 4.300 ft 240° 240° 14 kt METAR LFRB 271130Z AUTO 24014KT 220V280 9999 SCT034 BKN043 15/08 Q1019 TEMPO 24015G25KT
13:00
V
15 °C 10 km+ 4.400 ft 250° 250° 12 kt METAR LFRB 271100Z AUTO 25012KT 230V290 9999 SCT033 BKN044 15/08 Q1019 TEMPO 24015G25KT 3000 SHRA BKN020CB
12:30
V
15 °C 10 km+ 3.300 ft 260° 260° 13 kt METAR LFRB 271030Z AUTO 26013KT 230V290 9999 FEW016 BKN033 BKN048 15/08 Q1019 TEMPO 24015G25KT 3000 SHRA BKN020CB
12:00
V
14 °C 10 km+ - 270° 270° 12 kt METAR LFRB 271000Z AUTO 27012KT 9999 SCT031 SCT038 14/07 Q1019 TEMPO 24015G25KT 3000 SHRA BKN020CB
11:30
M
15 °C 10 km+ 3.000 ft 250° 250° 12 kt METAR LFRB 270930Z AUTO 25012KT 9999 BKN030 BKN035 BKN045 15/08 Q1019 TEMPO 24015G25KT 3000 SHRA BKN020CB
11:00
V
14 °C 10 km+ 4.000 ft 260° 260° 12 kt METAR LFRB 270900Z AUTO 26012KT 9999 SCT022 SCT029 BKN040 14/09 Q1019 TEMPO 24015G25KT 3000 SHRA BKN020CB
10:30
V
13 °C 10 km+ 3.400 ft 260° 260° 11 kt METAR LFRB 270830Z AUTO 26011KT 230V290 9999 SCT028/// BKN034/// OVC054/// //////TCU 13/08 Q1019 TEMPO 24015G25KT 3000 SHRA BKN020CB
10:00
V
14 °C 10 km+ 4.100 ft 260° 260° 7 kt METAR LFRB 270800Z AUTO 26007KT 220V310 9999 SCT030/// BKN041/// //////TCU 14/09 Q1019 TEMPO 24015G25KT 3000 SHRA BKN020CB
09:30
V
13 °C 10 km+ - 260° 260° 6 kt METAR LFRB 270730Z AUTO 26006KT 9999 //////TCU 13/09 Q1019 TEMPO 24015G25KT 3000 SHRA BKN020CB
09:00
V
11 °C 10 km+ - 250° 250° 5 kt METAR LFRB 270700Z AUTO 25005KT CAVOK 11/09 Q1019 TEMPO 24015G25KT 3000 SHRA BKN020CB
08:30
V
11 °C 10 km+ - 240° 240° 4 kt METAR LFRB 270630Z AUTO 24004KT 200V290 CAVOK 11/08 Q1018 TEMPO 24015G25KT 3000 SHRA BKN020CB
08:00
V
11 °C 10 km+ - 250° 250° 5 kt METAR LFRB 270600Z AUTO 25005KT 220V280 CAVOK 11/09 Q1018 TEMPO 3000 SHRA BKN020CB
Segnala modifiche